Terminal Aerodrome Forecast
Issued by NWS

Home | Current Version | Previous Version | Text Only | Print | Product List | Glossary On
Versions: 1 2 3 4 5 6 7 8 9 10 11 12 13 14
000
FTUS46 KMTR 271700
TAFSNS
TAF
KSNS 271726Z 2718/2818 VRB03KT P6SM SKC
     FM271900 29012KT P6SM SKC
     FM280400 29006KT P6SM SKC
     FM280600 VRB03KT P6SM BKN010=

USA.gov is the U.S. government's official web portal to all federal, state and local government web resources and services.